Time;durP1;ratioP1;P1;durP2;ratioP2;P2;SDS_P1;SDS_P2;PMS_P1;PMS_P2;Temp;Humidity;BMP_temperature;BMP_pressure;BME280_temperature;BME280_humidity;BME280_pressure;Samples;Min_cycle;Max_cycle;Signal;HPM_P1;HPM_P2
2022/04/25 00:02:24;;;;;;;16.37;8.97;;;9.00;99.90;;;;;;5134699;27;20047;-73
2022/04/25 00:04:50;;;;;;;14.87;8.23;;;9.00;99.90;;;;;;5134446;27;20046;-73
2022/04/25 00:07:16;;;;;;;14.47;8.57;;;9.10;99.90;;;;;;5133736;27;20288;-73
2022/04/25 00:09:43;;;;;;;14.50;8.47;;;9.00;99.90;;;;;;5134336;27;20276;-73
2022/04/25 00:12:09;;;;;;;14.00;8.30;;;9.00;99.90;;;;;;5134608;27;20043;-73
2022/04/25 00:14:35;;;;;;;13.57;8.07;;;9.00;99.90;;;;;;5134515;27;20035;-73
2022/04/25 00:17:00;;;;;;;17.63;9.20;;;9.10;99.90;;;;;;5134197;27;20275;-73
2022/04/25 00:19:26;;;;;;;13.20;8.00;;;9.10;99.90;;;;;;5133458;27;20055;-73
2022/04/25 00:21:52;;;;;;;14.63;8.13;;;9.10;99.90;;;;;;5132978;27;20099;-73
2022/04/25 00:24:18;;;;;;;15.20;8.00;;;9.10;99.90;;;;;;5134488;27;20074;-73
2022/04/25 00:26:44;;;;;;;17.37;8.77;;;9.00;99.90;;;;;;5134039;27;20039;-73
2022/04/25 00:29:11;;;;;;;16.03;8.13;;;9.10;99.90;;;;;;5133640;27;20769;-73
2022/04/25 00:31:37;;;;;;;15.07;8.35;;;9.00;99.90;;;;;;5134445;27;20099;-73
2022/04/25 00:34:02;;;;;;;13.57;8.50;;;9.00;99.90;;;;;;5132743;27;20047;-73
2022/04/25 00:36:28;;;;;;;12.20;7.70;;;9.00;99.90;;;;;;5133034;27;20043;-73
2022/04/25 00:38:54;;;;;;;14.57;8.80;;;8.90;99.90;;;;;;5133884;27;20483;-73
2022/04/25 00:41:19;;;;;;;16.73;8.70;;;8.90;99.90;;;;;;5134368;27;20054;-73
2022/04/25 00:43:45;;;;;;;14.37;7.97;;;8.90;99.90;;;;;;5133443;27;20043;-73
2022/04/25 00:46:20;;;;;;;13.70;7.57;;;8.90;99.90;;;;;;5134334;27;20054;-73
2022/04/25 00:48:47;;;;;;;15.73;8.68;;;8.90;99.90;;;;;;5133716;27;20039;-73
2022/04/25 00:51:13;;;;;;;14.60;8.02;;;8.90;99.90;;;;;;5134017;27;20444;-73
2022/04/25 00:53:39;;;;;;;14.00;8.80;;;8.80;99.90;;;;;;5133007;27;20138;-73
2022/04/25 00:56:07;;;;;;;15.63;8.10;;;8.80;99.90;;;;;;5133712;27;20355;-73
2022/04/25 00:58:33;;;;;;;12.75;8.30;;;8.80;99.90;;;;;;5133914;27;20053;-73
2022/04/25 01:00:59;;;;;;;18.00;8.83;;;8.80;99.90;;;;;;5133601;28;20475;-73
2022/04/25 01:03:25;;;;;;;14.63;8.90;;;8.90;99.90;;;;;;5133900;27;20130;-73
2022/04/25 01:05:52;;;;;;;13.27;8.40;;;8.80;99.90;;;;;;5133508;28;20130;-73
2022/04/25 01:08:18;;;;;;;13.00;8.40;;;8.80;99.90;;;;;;5133596;27;20487;-73
2022/04/25 01:10:44;;;;;;;15.90;8.73;;;8.80;99.90;;;;;;5133952;27;20126;-73
2022/04/25 01:13:11;;;;;;;15.23;8.90;;;8.70;99.90;;;;;;5133782;28;20043;-73
2022/04/25 01:15:37;;;;;;;13.20;8.30;;;8.80;99.90;;;;;;5133783;27;20043;-73
2022/04/25 01:18:03;;;;;;;14.50;8.60;;;8.90;99.90;;;;;;5135536;27;20043;-73
2022/04/25 01:20:29;;;;;;;13.23;8.33;;;8.80;99.90;;;;;;5138299;27;20085;-73
2022/04/25 01:27:15;;;;;;;14.73;8.67;;;8.80;99.90;;;;;;5136364;27;20424;-73
2022/04/25 01:28:30;;;;;;;14.80;8.77;;;8.80;99.90;;;;;;5138064;27;20444;-73
2022/04/25 01:30:56;;;;;;;13.43;8.37;;;8.70;99.90;;;;;;5137782;27;20043;-73
2022/04/25 01:33:21;;;;;;;15.63;8.67;;;8.70;99.90;;;;;;5137707;27;20453;-73
2022/04/25 01:35:47;;;;;;;13.30;8.13;;;8.70;99.90;;;;;;5119189;27;20047;-74
2022/04/25 01:38:13;;;;;;;14.40;8.90;;;8.80;99.90;;;;;;5119626;27;20134;-72
2022/04/25 01:40:38;;;;;;;12.97;9.53;;;8.80;99.90;;;;;;5137701;27;20501;-73
2022/04/25 01:43:04;;;;;;;15.13;8.57;;;8.80;99.90;;;;;;5136069;27;20390;-72
2022/04/25 01:45:30;;;;;;;13.93;9.33;;;8.80;99.90;;;;;;5137730;27;20059;-72
2022/04/25 01:47:55;;;;;;;13.70;9.00;;;8.80;99.90;;;;;;5119028;27;20134;-72
2022/04/25 01:50:21;;;;;;;14.17;8.70;;;8.70;99.90;;;;;;5137645;27;20066;-72
2022/04/25 01:52:47;;;;;;;15.50;9.47;;;8.70;99.90;;;;;;5137309;27;20047;-72
2022/04/25 01:55:12;;;;;;;15.93;8.93;;;8.70;99.90;;;;;;5136975;27;20054;-72
2022/04/25 01:57:38;;;;;;;20.63;8.33;;;8.60;99.90;;;;;;5137267;27;20051;-72
2022/04/25 02:00:05;;;;;;;16.90;9.43;;;8.70;99.90;;;;;;5136585;27;20051;-72
2022/04/25 02:02:31;;;;;;;16.27;8.93;;;8.60;99.90;;;;;;5136973;27;20043;-72
2022/04/25 02:04:57;;;;;;;13.13;8.47;;;8.60;99.90;;;;;;5136709;27;20749;-72
2022/04/25 02:07:23;;;;;;;17.37;8.93;;;8.50;99.90;;;;;;5137210;27;20051;-72
2022/04/25 02:09:49;;;;;;;14.17;8.40;;;8.50;99.90;;;;;;5137028;27;20347;-72
2022/04/25 02:12:15;;;;;;;15.53;8.80;;;8.50;99.90;;;;;;5136586;27;20050;-72
2022/04/25 02:14:42;;;;;;;16.38;8.20;;;8.40;99.90;;;;;;5136837;27;20055;-72
2022/04/25 02:17:09;;;;;;;14.77;8.05;;;8.50;99.90;;;;;;5136626;27;20062;-72
2022/04/25 02:19:38;;;;;;;16.63;8.10;;;8.30;99.90;;;;;;5136479;27;20550;-72
2022/04/25 02:22:07;;;;;;;14.43;7.53;;;8.30;99.90;;;;;;5136261;27;20495;-73
2022/04/25 02:24:33;;;;;;;15.00;7.35;;;8.20;99.90;;;;;;5135126;27;20042;-72
2022/04/25 02:27:03;;;;;;;12.07;7.83;;;8.20;99.90;;;;;;5135361;27;20043;-73
2022/04/25 02:29:32;;;;;;;14.20;7.63;;;8.20;99.90;;;;;;5135552;27;20082;-72
2022/04/25 02:31:59;;;;;;;12.85;7.35;;;8.20;99.90;;;;;;5134755;27;20487;-72
2022/04/25 02:34:25;;;;;;;11.32;7.50;;;8.20;99.90;;;;;;5118606;27;20100;-72
2022/04/25 02:36:51;;;;;;;13.02;7.15;;;8.20;99.90;;;;;;5136445;27;20074;-72
2022/04/25 02:39:17;;;;;;;14.27;7.77;;;8.10;99.90;;;;;;5136385;27;20415;-72
2022/04/25 02:41:42;;;;;;;12.70;7.60;;;8.00;99.90;;;;;;5135197;27;20437;-72
2022/04/25 02:44:08;;;;;;;13.43;6.90;;;8.00;99.90;;;;;;5135869;27;20091;-72
2022/04/25 02:46:34;;;;;;;15.07;8.00;;;8.00;99.90;;;;;;5118120;27;20052;-72
2022/04/25 02:49:00;;;;;;;11.57;6.57;;;8.00;99.90;;;;;;5134924;27;20126;-73
2022/04/25 02:51:25;;;;;;;15.60;7.70;;;8.00;99.90;;;;;;5136273;27;20043;-72
2022/04/25 02:53:51;;;;;;;12.47;7.60;;;7.90;99.90;;;;;;5136133;27;20168;-72
2022/04/25 02:56:17;;;;;;;10.03;6.50;;;8.00;99.90;;;;;;5135818;27;20054;-73
2022/04/25 02:58:42;;;;;;;12.33;7.10;;;8.00;99.90;;;;;;5118149;27;20082;-72
2022/04/25 03:01:08;;;;;;;13.07;7.70;;;7.90;99.90;;;;;;5134667;27;20043;-72
2022/04/25 03:03:36;;;;;;;14.43;8.50;;;8.00;99.90;;;;;;5135919;27;20509;-72
2022/04/25 03:06:04;;;;;;;12.57;7.90;;;7.90;99.90;;;;;;5134436;27;20049;-73
2022/04/25 03:08:30;;;;;;;11.50;7.43;;;7.90;99.90;;;;;;5135893;27;20376;-72
2022/04/25 03:10:56;;;;;;;12.48;7.57;;;7.90;99.90;;;;;;5135837;27;20047;-72
2022/04/25 03:13:26;;;;;;;16.35;7.88;;;7.80;99.90;;;;;;5135628;27;20088;-72
2022/04/25 03:15:52;;;;;;;13.57;7.68;;;7.80;99.90;;;;;;5135728;27;20076;-72
2022/04/25 03:18:19;;;;;;;16.42;8.50;;;7.80;99.90;;;;;;5135471;27;20093;-72
2022/04/25 03:20:48;;;;;;;12.93;7.80;;;7.70;99.90;;;;;;5135666;27;20078;-72
2022/04/25 03:23:14;;;;;;;15.50;8.52;;;7.70;99.90;;;;;;5135139;27;20035;-72
2022/04/25 03:25:41;;;;;;;14.20;8.73;;;7.60;99.90;;;;;;5134643;27;20055;-72
2022/04/25 03:28:06;;;;;;;18.35;9.07;;;7.70;99.90;;;;;;5135216;27;20126;-73
2022/04/25 03:30:32;;;;;;;15.17;8.80;;;7.60;99.90;;;;;;5135565;27;20122;-72
2022/04/25 03:32:59;;;;;;;14.38;7.63;;;7.70;99.90;;;;;;5135481;27;20040;-72
2022/04/25 03:35:25;;;;;;;13.52;8.40;;;7.60;99.90;;;;;;5135114;27;20047;-72
2022/04/25 03:37:52;;;;;;;14.63;8.68;;;7.60;99.90;;;;;;5135353;27;20055;-72
2022/04/25 03:40:18;;;;;;;18.15;7.72;;;7.60;99.90;;;;;;5134743;27;20070;-72
2022/04/25 03:42:45;;;;;;;11.80;7.45;;;7.60;99.90;;;;;;5135110;27;20050;-72
2022/04/25 03:45:15;;;;;;;13.02;8.75;;;7.60;99.90;;;;;;5133490;27;20059;-73
2022/04/25 03:47:41;;;;;;;16.27;8.10;;;7.60;99.90;;;;;;5135268;27;20051;-72
2022/04/25 03:50:09;;;;;;;12.90;8.13;;;7.70;99.90;;;;;;5134657;27;20074;-72
2022/04/25 03:52:36;;;;;;;15.00;8.40;;;7.70;99.90;;;;;;5134993;27;20058;-72
2022/04/25 03:58:04;;;;;;;15.35;7.38;;;7.80;99.90;;;;;;5134515;27;20114;-74
2022/04/25 04:00:31;;;;;;;11.13;6.90;;;7.80;99.90;;;;;;5135126;27;20148;-72
2022/04/25 04:02:58;;;;;;;12.93;8.05;;;7.80;99.90;;;;;;5134655;27;20102;-72
2022/04/25 04:05:24;;;;;;;18.50;8.10;;;7.80;99.90;;;;;;5134453;27;20051;-72
2022/04/25 04:07:51;;;;;;;13.02;7.28;;;8.00;99.90;;;;;;5133501;27;20107;-72
2022/04/25 04:10:18;;;;;;;12.43;7.00;;;8.00;99.90;;;;;;5116407;27;20079;-72
2022/04/25 04:12:47;;;;;;;14.02;7.43;;;8.00;99.90;;;;;;5133452;27;20043;-72
2022/04/25 04:15:15;;;;;;;10.50;6.68;;;8.00;99.90;;;;;;5134144;27;20039;-73
2022/04/25 04:17:41;;;;;;;11.50;7.18;;;8.10;99.90;;;;;;5134545;27;20046;-72
2022/04/25 04:20:08;;;;;;;14.03;7.60;;;8.10;99.90;;;;;;5134157;27;20043;-73
2022/04/25 04:22:36;;;;;;;18.17;7.88;;;8.20;99.90;;;;;;5134293;27;20395;-72
2022/04/25 04:25:07;;;;;;;14.68;8.20;;;8.20;99.90;;;;;;5134513;27;20051;-72
2022/04/25 04:27:33;;;;;;;15.77;8.10;;;8.30;99.90;;;;;;5134361;27;20047;-72
2022/04/25 04:30:06;;;;;;;10.87;7.80;;;8.30;99.90;;;;;;5134544;27;20111;-72
2022/04/25 04:32:32;;;;;;;15.10;7.47;;;8.30;99.90;;;;;;5134563;27;20051;-72
2022/04/25 04:34:58;;;;;;;15.75;7.75;;;8.30;99.90;;;;;;5134311;27;20047;-72
2022/04/25 04:37:25;;;;;;;13.50;7.47;;;8.30;99.90;;;;;;5133954;27;20436;-72
2022/04/25 04:40:28;;;;;;;16.20;8.73;;;8.40;99.90;;;;;;5133132;27;20039;-72
2022/04/25 04:42:38;;;;;;;12.88;7.85;;;8.30;99.90;;;;;;5134341;27;20069;-72
2022/04/25 04:45:05;;;;;;;13.48;7.85;;;8.30;99.90;;;;;;5133706;27;20055;-72
2022/04/25 04:47:36;;;;;;;14.25;7.68;;;8.40;99.90;;;;;;5132757;27;20039;-72
2022/04/25 04:50:03;;;;;;;14.05;7.70;;;8.40;99.90;;;;;;5133162;27;20387;-72
2022/04/25 04:52:28;;;;;;;13.55;7.43;;;8.40;99.90;;;;;;5133416;27;20561;-72
2022/04/25 04:54:54;;;;;;;15.57;7.47;;;8.40;99.90;;;;;;5134087;27;20160;-72
2022/04/25 04:57:20;;;;;;;10.97;6.63;;;8.30;99.90;;;;;;5132618;27;20047;-72
2022/04/25 04:59:45;;;;;;;13.33;8.30;;;8.40;99.90;;;;;;5134265;28;20073;-72
2022/04/25 05:02:11;;;;;;;13.80;7.57;;;8.50;99.90;;;;;;5133732;27;20466;-73
2022/04/25 05:04:38;;;;;;;13.87;7.73;;;8.40;99.90;;;;;;5133827;27;20507;-72
2022/04/25 05:07:04;;;;;;;16.13;8.35;;;8.40;99.90;;;;;;5132874;28;20122;-72
2022/04/25 05:09:30;;;;;;;13.55;7.78;;;8.40;99.90;;;;;;5133572;27;20113;-72
2022/04/25 05:11:56;;;;;;;12.97;7.23;;;8.40;99.90;;;;;;5133877;27;20499;-72
2022/04/25 05:14:21;;;;;;;14.27;7.77;;;8.30;99.90;;;;;;5133426;28;20039;-73
2022/04/25 05:16:47;;;;;;;12.93;7.30;;;8.30;99.90;;;;;;5133809;27;20043;-73
2022/04/25 05:19:13;;;;;;;11.87;8.20;;;8.30;99.90;;;;;;5132255;28;20101;-72
2022/04/25 05:21:39;;;;;;;13.87;7.93;;;8.30;99.90;;;;;;5132575;28;20046;-72
2022/04/25 05:24:06;;;;;;;16.02;8.20;;;8.20;99.90;;;;;;5133634;27;20049;-72
2022/04/25 05:26:32;;;;;;;13.57;8.52;;;8.30;99.90;;;;;;5133343;28;20096;-72
2022/04/25 05:28:58;;;;;;;12.80;8.20;;;8.30;99.90;;;;;;5132466;28;20039;-72
2022/04/25 05:31:24;;;;;;;17.80;8.03;;;8.30;99.90;;;;;;5132302;28;20047;-72
2022/04/25 05:33:49;;;;;;;14.07;8.20;;;8.30;99.90;;;;;;5133874;28;20043;-72
2022/04/25 05:36:15;;;;;;;14.90;8.33;;;8.40;99.90;;;;;;5133252;28;20390;-73
2022/04/25 05:38:41;;;;;;;12.20;8.07;;;8.40;99.90;;;;;;5133856;28;20043;-72
2022/04/25 05:41:09;;;;;;;17.40;8.77;;;8.30;99.90;;;;;;5133565;27;20051;-72
2022/04/25 05:43:37;;;;;;;15.18;8.52;;;8.30;99.90;;;;;;5133165;27;20042;-72
2022/04/25 05:46:03;;;;;;;12.85;8.63;;;8.40;99.90;;;;;;5133574;27;20055;-73
2022/04/25 05:53:57;;;;;;;15.07;8.80;;;8.40;99.90;;;;;;5133519;28;20043;-73
2022/04/25 05:56:23;;;;;;;15.27;9.17;;;8.30;99.90;;;;;;5131882;28;20043;-73
2022/04/25 05:58:49;;;;;;;13.67;8.67;;;8.40;99.90;;;;;;5132347;28;20043;-73
2022/04/25 06:01:15;;;;;;;14.30;8.20;;;8.30;99.90;;;;;;5133357;27;20039;-73
2022/04/25 06:03:40;;;;;;;12.47;8.10;;;8.30;99.90;;;;;;5134541;27;20062;-73
2022/04/25 06:06:06;;;;;;;12.83;8.43;;;8.40;99.90;;;;;;5136101;27;20379;-73
2022/04/25 06:08:32;;;;;;;13.40;8.47;;;8.40;99.90;;;;;;5136704;27;20382;-73
2022/04/25 06:10:57;;;;;;;12.10;8.63;;;8.40;99.90;;;;;;5136717;27;20070;-73
2022/04/25 06:13:25;;;;;;;13.73;8.30;;;8.40;99.90;;;;;;5136627;27;20043;-73
2022/04/25 06:15:51;;;;;;;19.80;9.18;;;8.30;99.90;;;;;;5136903;27;20047;-73
2022/04/25 06:18:17;;;;;;;13.90;8.73;;;8.40;99.90;;;;;;5135743;27;20051;-73
2022/04/25 06:20:43;;;;;;;14.93;9.30;;;8.40;99.90;;;;;;5137221;27;20050;-73
2022/04/25 06:23:09;;;;;;;16.07;8.67;;;8.40;99.90;;;;;;5135798;27;20372;-73
2022/04/25 06:25:37;;;;;;;12.60;8.10;;;8.40;99.90;;;;;;5136477;27;20054;-73
2022/04/25 06:28:04;;;;;;;13.07;8.43;;;8.50;99.90;;;;;;5136870;27;20116;-73
2022/04/25 06:30:30;;;;;;;15.40;9.52;;;8.50;99.90;;;;;;5136310;27;20121;-73
2022/04/25 06:33:00;;;;;;;13.23;9.43;;;8.50;99.90;;;;;;5136584;27;20546;-73
2022/04/25 06:35:27;;;;;;;13.35;8.95;;;8.50;99.90;;;;;;5136219;27;20280;-73
2022/04/25 06:37:52;;;;;;;13.65;8.77;;;8.40;99.90;;;;;;5136484;27;20047;-73
2022/04/25 06:40:20;;;;;;;13.77;8.23;;;8.40;99.90;;;;;;5135490;27;20047;-73
2022/04/25 06:42:46;;;;;;;15.73;9.07;;;8.40;99.90;;;;;;5136356;27;20126;-73
2022/04/25 06:45:13;;;;;;;13.35;9.38;;;8.50;99.90;;;;;;5136337;27;20059;-73
2022/04/25 06:47:39;;;;;;;13.65;9.13;;;8.50;99.90;;;;;;5135030;27;20054;-73
2022/04/25 06:50:06;;;;;;;13.15;8.93;;;8.60;99.90;;;;;;5136307;27;20090;-73
2022/04/25 06:52:33;;;;;;;13.60;8.90;;;8.60;99.90;;;;;;5135916;27;20100;-73
2022/04/25 06:54:58;;;;;;;15.73;7.80;;;8.70;99.90;;;;;;5136189;27;20050;-73
2022/04/25 06:57:24;;;;;;;13.10;7.80;;;8.70;99.90;;;;;;5135788;27;20043;-73
2022/04/25 06:59:50;;;;;;;12.67;8.50;;;8.70;99.90;;;;;;5136034;27;20043;-73
2022/04/25 07:02:17;;;;;;;14.35;8.65;;;8.70;99.90;;;;;;5135527;27;20039;-73
2022/04/25 07:04:43;;;;;;;13.32;8.48;;;8.70;99.90;;;;;;5135068;27;20493;-73
2022/04/25 07:07:09;;;;;;;14.27;8.20;;;8.70;99.90;;;;;;5135956;27;20054;-72
2022/04/25 07:09:35;;;;;;;14.25;8.23;;;8.70;99.90;;;;;;5135599;27;20403;-73
2022/04/25 07:12:01;;;;;;;14.27;7.90;;;8.70;99.90;;;;;;5135824;27;20047;-73
2022/04/25 07:14:28;;;;;;;20.75;8.43;;;8.80;99.90;;;;;;5135445;27;20050;-72
2022/04/25 07:16:57;;;;;;;12.50;8.93;;;8.80;99.90;;;;;;5135520;27;20406;-73
2022/04/25 07:19:23;;;;;;;13.57;8.52;;;8.80;99.90;;;;;;5135690;27;20134;-72
2022/04/25 07:30:03;;;;;;;15.77;8.57;;;8.90;99.90;;;;;;5135747;27;20349;-73
2022/04/25 07:32:30;;;;;;;12.73;7.15;;;8.90;99.90;;;;;;5134164;27;20047;-72
2022/04/25 07:34:55;;;;;;;15.45;8.07;;;8.90;99.90;;;;;;5134373;27;20085;-73
2022/04/25 07:37:22;;;;;;;11.10;7.13;;;8.90;99.90;;;;;;5135266;27;20047;-72
2022/04/25 07:39:48;;;;;;;12.20;7.40;;;9.00;99.90;;;;;;5117070;27;20055;-72
2022/04/25 07:42:15;;;;;;;13.27;7.33;;;9.10;99.90;;;;;;5135222;27;20360;-72
2022/04/25 07:44:42;;;;;;;15.13;8.38;;;9.10;99.90;;;;;;5134820;27;20380;-72
2022/04/25 07:47:08;;;;;;;13.63;8.07;;;9.10;99.90;;;;;;5135098;27;20096;-73
2022/04/25 07:49:34;;;;;;;15.18;7.93;;;9.10;99.90;;;;;;5134855;27;20160;-73
2022/04/25 07:52:00;;;;;;;16.80;8.23;;;9.00;99.90;;;;;;5133735;27;20070;-73
2022/04/25 07:54:26;;;;;;;14.00;8.30;;;9.00;99.90;;;;;;5134998;27;20078;-72
2022/04/25 07:56:52;;;;;;;13.30;7.97;;;9.00;99.90;;;;;;5134627;27;20043;-72
2022/04/25 07:59:19;;;;;;;15.47;9.03;;;9.00;99.90;;;;;;5134835;27;20058;-72
2022/04/25 08:01:45;;;;;;;15.52;8.45;;;9.00;99.90;;;;;;5134832;27;20146;-73
2022/04/25 08:04:11;;;;;;;16.05;8.18;;;9.00;99.90;;;;;;5134795;27;20060;-73
2022/04/25 08:06:38;;;;;;;19.07;8.17;;;9.10;99.90;;;;;;5134404;27;20368;-73
2022/04/25 08:09:05;;;;;;;16.17;7.87;;;9.10;99.90;;;;;;5133497;27;20281;-73
2022/04/25 08:11:31;;;;;;;13.63;7.90;;;9.20;99.90;;;;;;5134416;27;20272;-73
2022/04/25 08:19:25;;;;;;;11.43;7.82;;;9.20;99.90;;;;;;5134197;27;20483;-73
2022/04/25 08:21:52;;;;;;;13.80;7.83;;;9.20;99.90;;;;;;5134102;27;20047;-73
2022/04/25 08:24:18;;;;;;;13.80;8.00;;;9.20;99.90;;;;;;5134349;27;20140;-73
2022/04/25 08:26:44;;;;;;;12.80;6.70;;;9.30;99.90;;;;;;5133393;27;20056;-72
2022/04/25 08:29:10;;;;;;;13.15;7.30;;;9.30;99.90;;;;;;5134262;27;20135;-71
2022/04/25 08:31:37;;;;;;;11.90;7.40;;;9.30;99.90;;;;;;5133547;27;20111;-72
2022/04/25 08:34:04;;;;;;;14.60;7.25;;;9.30;99.90;;;;;;5133768;27;20050;-70
2022/04/25 08:36:31;;;;;;;11.48;7.15;;;9.30;99.90;;;;;;5133744;27;20050;-70
2022/04/25 08:38:56;;;;;;;11.75;6.80;;;9.30;99.90;;;;;;5133552;27;20039;-71
2022/04/25 08:41:29;;;;;;;11.53;6.57;;;9.40;99.90;;;;;;5132622;27;20494;-72
2022/04/25 08:43:56;;;;;;;13.30;7.10;;;9.40;99.90;;;;;;5129988;27;20122;-72
2022/04/25 08:46:23;;;;;;;11.18;6.28;;;9.50;99.90;;;;;;5134358;27;20051;-71
2022/04/25 08:48:50;;;;;;;17.37;6.67;;;9.50;99.90;;;;;;5132947;27;20475;-71
2022/04/25 08:51:16;;;;;;;11.20;6.17;;;9.60;99.90;;;;;;5133817;27;20770;-70
2022/04/25 08:53:44;;;;;;;16.70;6.38;;;9.60;99.90;;;;;;5133846;27;20273;-72
2022/04/25 08:56:10;;;;;;;14.17;6.57;;;9.70;99.90;;;;;;5133971;27;20035;-69
2022/04/25 08:58:41;;;;;;;10.93;5.67;;;9.80;99.90;;;;;;5115716;28;20292;-70
2022/04/25 09:01:12;;;;;;;11.63;6.07;;;9.80;99.90;;;;;;5133963;27;20268;-72
2022/04/25 09:03:37;;;;;;;10.50;5.90;;;9.90;99.90;;;;;;5132332;28;20883;-70
2022/04/25 09:06:04;;;;;;;10.77;5.80;;;9.90;99.90;;;;;;5133829;28;20356;-70
2022/04/25 09:08:30;;;;;;;9.18;4.75;;;10.00;99.90;;;;;;5133893;27;20082;-76
2022/04/25 09:13:44;;;;;;;12.30;5.77;;;10.00;99.90;;;;;;5132548;28;20349;-75
2022/04/25 09:16:12;;;;;;;9.63;5.40;;;10.10;99.90;;;;;;5131420;28;20375;-74
2022/04/25 09:18:38;;;;;;;7.33;5.40;;;10.00;99.90;;;;;;5133452;27;20276;-74
2022/04/25 09:21:07;;;;;;;12.10;6.67;;;9.90;99.90;;;;;;5133729;27;20356;-75
2022/04/25 09:23:33;;;;;;;14.03;5.70;;;10.00;99.90;;;;;;5133732;27;20051;-75
2022/04/25 09:26:11;;;;;;;9.47;4.70;;;10.00;99.90;;;;;;5133096;27;20288;-74
2022/04/25 09:28:54;;;;;;;11.10;5.50;;;10.00;99.90;;;;;;5133610;28;20363;-75
2022/04/25 09:31:22;;;;;;;9.07;4.70;;;10.00;99.90;;;;;;5115693;28;20764;-75
2022/04/25 09:33:49;;;;;;;12.30;4.90;;;10.00;99.90;;;;;;5133447;27;20316;-74
2022/04/25 09:36:15;;;;;;;10.77;4.50;;;10.10;99.90;;;;;;5133555;27;20276;-75
2022/04/25 09:38:42;;;;;;;9.43;4.83;;;10.10;99.90;;;;;;5134455;27;20800;-74
2022/04/25 09:41:10;;;;;;;9.73;4.93;;;10.20;99.90;;;;;;5137635;27;20621;-75
2022/04/25 09:43:41;;;;;;;8.50;5.30;;;10.10;99.90;;;;;;5137542;27;20296;-75
2022/04/25 09:46:12;;;;;;;7.67;4.23;;;10.20;99.90;;;;;;5138051;27;20351;-75
2022/04/25 09:48:41;;;;;;;10.83;4.70;;;10.20;99.90;;;;;;5137648;27;20276;-76
2022/04/25 09:51:16;;;;;;;9.90;4.70;;;10.30;99.90;;;;;;5137356;27;20272;-74
2022/04/25 09:53:53;;;;;;;10.82;4.55;;;10.20;99.90;;;;;;5136277;27;20671;-74
2022/04/25 09:56:22;;;;;;;9.17;4.83;;;10.10;99.90;;;;;;5137653;27;20131;-74
2022/04/25 09:59:03;;;;;;;9.63;4.90;;;10.10;99.90;;;;;;5135914;27;20328;-75
2022/04/25 10:01:30;;;;;;;9.57;4.70;;;10.10;99.90;;;;;;5137257;27;20287;-75
2022/04/25 10:03:56;;;;;;;11.37;5.07;;;10.10;99.90;;;;;;5137071;27;20289;-75
2022/04/25 10:06:23;;;;;;;10.77;5.30;;;10.10;99.90;;;;;;5137273;27;20272;-74
2022/04/25 10:08:51;;;;;;;9.63;5.30;;;10.10;99.90;;;;;;5136721;27;20280;-74
2022/04/25 10:11:19;;;;;;;10.20;4.57;;;10.20;99.90;;;;;;5136977;27;20280;-75
2022/04/25 10:13:47;;;;;;;8.30;4.67;;;10.20;99.90;;;;;;5135037;27;20273;-73
2022/04/25 10:16:18;;;;;;;8.37;4.40;;;10.20;99.90;;;;;;5136890;27;20281;-76
2022/04/25 10:18:45;;;;;;;17.93;5.20;;;10.30;99.90;;;;;;5136996;27;20265;-74
2022/04/25 10:21:11;;;;;;;9.37;4.70;;;10.30;99.90;;;;;;5136689;27;20764;-76
2022/04/25 10:23:38;;;;;;;10.50;4.63;;;10.40;99.90;;;;;;5135460;27;20284;-76
2022/04/25 10:26:04;;;;;;;11.27;5.27;;;10.50;99.90;;;;;;5136088;27;20760;-73
2022/04/25 10:28:36;;;;;;;10.57;4.90;;;10.70;99.90;;;;;;5135790;27;20288;-70
2022/04/25 10:31:04;;;;;;;10.70;4.57;;;10.80;99.90;;;;;;5136459;27;20335;-78
2022/04/25 10:33:53;;;;;;;11.47;4.93;;;10.90;99.90;;;;;;5136625;27;20277;-76
2022/04/25 10:36:37;;;;;;;7.87;4.50;;;11.10;99.90;;;;;;5135626;27;20326;-79
2022/04/25 10:39:13;;;;;;;10.20;4.40;;;;;;;;;;5135192;27;20772;-76
2022/04/25 10:44:42;;;;;;;10.90;4.23;;;11.50;99.90;;;;;;5136158;27;20378;-79
2022/04/25 10:47:11;;;;;;;9.87;4.53;;;11.60;99.90;;;;;;5136128;27;20291;-77
2022/04/25 10:49:58;;;;;;;10.33;4.50;;;11.70;99.90;;;;;;5135662;27;20323;-79
2022/04/25 10:52:52;;;;;;;8.77;4.13;;;11.80;99.90;;;;;;5136424;27;20348;-76
2022/04/25 10:55:42;;;;;;;8.93;3.87;;;11.80;99.90;;;;;;5136126;27;20757;-75
2022/04/25 10:58:13;;;;;;;8.53;4.50;;;11.80;99.90;;;;;;5135774;27;20830;-70
2022/04/25 11:00:44;;;;;;;9.87;4.43;;;11.80;99.90;;;;;;5135093;27;20881;-70
2022/04/25 11:03:27;;;;;;;7.97;4.50;;;11.90;99.90;;;;;;5135773;27;20820;-70
2022/04/25 11:05:55;;;;;;;8.23;4.13;;;12.00;99.90;;;;;;5135907;27;20272;-70
2022/04/25 11:08:21;;;;;;;7.37;3.90;;;12.00;99.90;;;;;;5134968;27;20300;-70
2022/04/25 11:11:01;;;;;;;9.83;4.20;;;12.00;99.90;;;;;;5135923;27;20276;-70
2022/04/25 11:13:49;;;;;;;9.90;4.27;;;11.90;99.90;;;;;;5135882;27;20280;-71
2022/04/25 11:16:24;;;;;;;7.97;3.70;;;12.00;99.90;;;;;;5134669;27;20792;-76
2022/04/25 11:19:12;;;;;;;8.43;4.35;;;12.00;99.90;;;;;;5135719;27;20313;-75
2022/04/25 11:21:47;;;;;;;11.83;4.30;;;12.10;99.90;;;;;;5135619;27;20088;-75
2022/04/25 11:24:33;;;;;;;10.63;4.28;;;12.20;99.90;;;;;;5132940;27;20304;-75
2022/04/25 11:27:01;;;;;;;8.50;3.90;;;12.20;99.90;;;;;;5135271;27;20136;-75
2022/04/25 11:29:28;;;;;;;11.50;3.90;;;12.20;99.90;;;;;;5135667;27;20273;-75
2022/04/25 11:32:35;;;;;;;8.60;3.90;;;12.30;99.90;;;;;;5135377;27;20280;-74
2022/04/25 11:35:03;;;;;;;9.70;4.47;;;12.40;99.90;;;;;;5135340;27;20807;-75
2022/04/25 11:37:32;;;;;;;6.67;3.73;;;12.50;99.90;;;;;;5135420;27;20783;-75
2022/04/25 11:39:59;;;;;;;8.90;4.27;;;12.50;99.90;;;;;;5134197;27;20624;-75
2022/04/25 11:42:30;;;;;;;8.53;3.77;;;12.60;99.10;;;;;;5135468;27;20285;-76
2022/04/25 11:44:57;;;;;;;10.77;4.47;;;12.70;98.70;;;;;;5135057;27;20339;-74
2022/04/25 11:47:23;;;;;;;11.90;4.37;;;12.80;98.30;;;;;;5135458;27;20373;-75
2022/04/25 11:50:05;;;;;;;6.73;4.10;;;12.80;99.40;;;;;;5135305;27;20276;-75
2022/04/25 11:52:32;;;;;;;9.87;4.77;;;12.80;99.50;;;;;;5135568;27;20329;-75
2022/04/25 11:54:58;;;;;;;11.60;4.50;;;12.80;99.90;;;;;;5134986;27;20269;-74
2022/04/25 11:57:25;;;;;;;7.83;4.07;;;12.90;99.90;;;;;;5134055;27;20311;-75
2022/04/25 12:00:18;;;;;;;10.77;4.23;;;12.90;99.70;;;;;;5134992;27;20039;-75
2022/04/25 12:02:45;;;;;;;9.23;4.47;;;13.00;99.90;;;;;;5135029;27;20269;-75
2022/04/25 12:05:12;;;;;;;9.40;3.97;;;13.00;99.90;;;;;;5134826;27;20273;-75
2022/04/25 12:15:33;;;;;;;11.00;4.00;;;13.10;99.80;;;;;;5134939;27;20360;-75
2022/04/25 12:15:55;;;;;;;14.67;4.30;;;13.10;99.90;;;;;;5134759;27;20187;-76
2022/04/25 12:18:26;;;;;;;13.97;5.00;;;13.10;99.80;;;;;;5134497;27;20371;-75
2022/04/25 12:21:08;;;;;;;10.13;4.30;;;13.00;99.90;;;;;;5134701;27;20051;-75
2022/04/25 12:23:36;;;;;;;14.37;4.13;;;12.90;99.90;;;;;;5134685;27;20335;-75
2022/04/25 12:26:03;;;;;;;8.33;4.50;;;12.90;99.90;;;;;;5134411;27;20277;-75
2022/04/25 12:28:37;;;;;;;8.87;4.30;;;12.80;99.90;;;;;;5133616;27;20646;-75
2022/04/25 12:31:06;;;;;;;8.93;3.97;;;12.80;99.90;;;;;;5134359;27;20288;-75
2022/04/25 12:33:42;;;;;;;9.53;3.90;;;12.70;99.90;;;;;;5134412;27;20349;-75
2022/04/25 12:36:24;;;;;;;9.50;3.83;;;12.70;99.90;;;;;;5133941;27;20277;-75
2022/04/25 12:38:57;;;;;;;9.40;3.77;;;12.60;99.90;;;;;;5134552;27;20276;-75
2022/04/25 12:41:33;;;;;;;9.23;3.83;;;12.60;99.90;;;;;;5134191;27;20284;-75
2022/04/25 12:44:11;;;;;;;13.63;4.77;;;12.50;99.90;;;;;;5133742;27;20862;-76
2022/04/25 12:46:40;;;;;;;8.63;4.30;;;12.50;99.90;;;;;;5134592;27;20693;-75
2022/04/25 12:49:13;;;;;;;12.13;4.37;;;12.50;99.90;;;;;;5134017;27;20280;-75
2022/04/25 12:51:52;;;;;;;8.60;4.07;;;12.60;99.90;;;;;;5134241;27;20312;-76
2022/04/25 12:54:56;;;;;;;8.97;3.97;;;12.60;99.90;;;;;;5134017;27;20292;-75
2022/04/25 12:57:26;;;;;;;8.63;4.00;;;12.60;99.90;;;;;;5070503;28;20291;-74
2022/04/25 12:59:52;;;;;;;8.20;4.43;;;12.60;99.90;;;;;;5054143;28;20317;-75
2022/04/25 13:02:22;;;;;;;8.90;4.07;;;12.60;99.90;;;;;;5102029;27;20324;-75
2022/04/25 13:04:50;;;;;;;7.77;4.20;;;12.60;99.90;;;;;;5134025;28;20089;-75
2022/04/25 13:07:16;;;;;;;9.50;4.60;;;12.60;99.90;;;;;;5132978;28;20368;-75
2022/04/25 13:09:41;;;;;;;7.87;4.47;;;12.60;99.90;;;;;;5134001;28;20364;-75
2022/04/25 13:12:18;;;;;;;8.13;4.33;;;12.60;99.90;;;;;;5133813;28;20415;-74
2022/04/25 13:14:44;;;;;;;10.23;4.30;;;12.60;99.90;;;;;;5137117;27;20474;-75
2022/04/25 13:17:11;;;;;;;8.83;4.00;;;12.60;99.90;;;;;;5138164;27;20348;-75
2022/04/25 13:19:38;;;;;;;15.93;4.40;;;12.60;99.90;;;;;;5138183;27;20277;-75
2022/04/25 13:22:04;;;;;;;12.47;4.80;;;12.70;99.90;;;;;;5136993;27;20325;-74
2022/04/25 13:24:31;;;;;;;9.50;4.07;;;12.60;99.90;;;;;;5138025;27;20776;-75
2022/04/25 13:26:57;;;;;;;10.37;4.07;;;12.60;99.90;;;;;;5138163;27;20058;-75
2022/04/25 13:29:23;;;;;;;11.90;5.20;;;12.60;99.90;;;;;;5137808;27;20285;-75